createdAt,value
2022-10-23T00:00:19.054Z,0
2022-10-23T00:01:19.010Z,0
2022-10-23T00:02:19.128Z,0
2022-10-23T00:03:18.996Z,0
2022-10-23T00:04:19.019Z,0
2022-10-23T00:05:18.999Z,0
2022-10-23T00:06:18.996Z,0
2022-10-23T00:07:19.055Z,0
2022-10-23T00:08:19.015Z,0
2022-10-23T00:09:18.997Z,0
2022-10-23T00:10:19.019Z,0
2022-10-23T00:11:19.001Z,0
2022-10-23T00:12:19.027Z,0
2022-10-23T00:13:19.007Z,0
2022-10-23T00:14:19.037Z,0
2022-10-23T00:15:18.998Z,0
2022-10-23T00:16:19.008Z,0
2022-10-23T00:17:19.030Z,0
2022-10-23T00:18:18.996Z,0
2022-10-23T00:19:18.991Z,0
2022-10-23T00:20:19.001Z,0
2022-10-23T00:21:18.997Z,0
2022-10-23T00:22:19.062Z,0
2022-10-23T00:23:19.004Z,0
2022-10-23T00:24:19.010Z,0
2022-10-23T00:25:19.018Z,0
2022-10-23T00:26:19.003Z,0
2022-10-23T00:27:19.047Z,0
2022-10-23T00:28:18.995Z,0
2022-10-23T00:29:18.997Z,0
2022-10-23T00:30:18.993Z,0
2022-10-23T00:31:18.993Z,0
2022-10-23T00:32:19.091Z,0
2022-10-23T00:33:19.011Z,0
2022-10-23T00:34:18.995Z,0
2022-10-23T00:35:19.004Z,0
2022-10-23T00:36:19.000Z,0
2022-10-23T00:37:19.032Z,0
2022-10-23T00:38:19.021Z,0
2022-10-23T00:39:19.004Z,0
2022-10-23T00:40:19.012Z,0
2022-10-23T00:41:19.013Z,0
2022-10-23T00:42:19.005Z,0
2022-10-23T00:43:18.994Z,0
2022-10-23T00:44:18.998Z,0
2022-10-23T00:45:19.003Z,0
2022-10-23T00:46:19.000Z,0
2022-10-23T00:47:19.055Z,0
2022-10-23T00:48:18.998Z,0
2022-10-23T00:49:19.018Z,0
2022-10-23T00:50:19.010Z,0
2022-10-23T00:51:19.187Z,0
2022-10-23T00:52:19.022Z,0
2022-10-23T00:53:19.008Z,0
2022-10-23T00:54:23.789Z,0
2022-10-23T00:55:19.015Z,0
2022-10-23T00:56:19.008Z,0
2022-10-23T00:57:19.106Z,0
2022-10-23T00:58:18.996Z,0
2022-10-23T00:59:19.019Z,0
2022-10-23T01:00:18.999Z,0
2022-10-23T01:01:19.143Z,0
2022-10-23T01:02:19.186Z,0
2022-10-23T01:03:19.115Z,0
2022-10-23T01:04:19.016Z,0
2022-10-23T01:05:19.002Z,0
2022-10-23T01:06:19.000Z,0
2022-10-23T01:07:19.034Z,0
2022-10-23T01:08:18.995Z,0
2022-10-23T01:09:19.011Z,0
2022-10-23T01:10:19.001Z,0
2022-10-23T01:11:19.012Z,0
2022-10-23T01:12:19.024Z,0
2022-10-23T01:13:19.000Z,0
2022-10-23T01:14:19.016Z,0
2022-10-23T01:15:19.025Z,0
2022-10-23T01:16:19.136Z,0
2022-10-23T01:17:19.023Z,0
2022-10-23T01:18:18.993Z,0
2022-10-23T01:19:19.010Z,0
2022-10-23T01:20:19.007Z,0
2022-10-23T01:21:19.014Z,0
2022-10-23T01:22:19.055Z,0
2022-10-23T01:23:19.007Z,0
2022-10-23T01:24:19.007Z,0
2022-10-23T01:25:18.997Z,0
2022-10-23T01:26:19.007Z,0
2022-10-23T01:27:19.051Z,0
2022-10-23T01:28:19.005Z,0
2022-10-23T01:29:18.995Z,0
2022-10-23T01:30:19.001Z,0
2022-10-23T01:31:18.993Z,0
2022-10-23T01:32:19.038Z,0
2022-10-23T01:33:19.013Z,0
2022-10-23T01:34:19.001Z,0
2022-10-23T01:35:19.013Z,0
2022-10-23T01:36:19.004Z,0
2022-10-23T01:37:19.025Z,0
2022-10-23T01:38:19.006Z,0
2022-10-23T01:39:19.021Z,0
2022-10-23T01:40:18.994Z,0
2022-10-23T01:41:18.993Z,0
2022-10-23T01:42:19.002Z,0
2022-10-23T01:43:19.026Z,0
2022-10-23T01:44:18.998Z,0
2022-10-23T01:45:19.000Z,0
2022-10-23T01:46:19.008Z,0
2022-10-23T01:47:19.039Z,0
2022-10-23T01:48:18.998Z,0
2022-10-23T01:49:19.015Z,0
2022-10-23T01:50:19.021Z,0
2022-10-23T01:51:19.011Z,0
2022-10-23T01:52:19.151Z,0
2022-10-23T01:53:18.999Z,0
2022-10-23T01:54:18.989Z,0
2022-10-23T01:55:18.989Z,0
2022-10-23T01:56:18.991Z,0
2022-10-23T01:57:19.003Z,0
2022-10-23T01:58:18.999Z,0
2022-10-23T01:59:18.994Z,0
2022-10-23T02:00:19.015Z,0
2022-10-23T02:01:19.042Z,0
2022-10-23T02:02:19.102Z,0
2022-10-23T02:03:19.210Z,0
2022-10-23T02:04:19.006Z,0
2022-10-23T02:05:18.998Z,0
2022-10-23T02:06:18.988Z,0
2022-10-23T02:07:18.997Z,0
2022-10-23T02:08:19.008Z,0
2022-10-23T02:09:18.983Z,0
2022-10-23T02:10:19.304Z,0
2022-10-23T02:11:19.536Z,0
2022-10-23T02:12:19.924Z,0
2022-10-23T02:13:19.392Z,0
2022-10-23T02:14:19.649Z,0
2022-10-23T02:15:19.148Z,0
2022-10-23T02:16:19.207Z,0
2022-10-23T02:17:18.993Z,0
2022-10-23T02:18:19.088Z,0
2022-10-23T02:19:19.304Z,0
2022-10-23T02:20:19.010Z,0
2022-10-23T02:21:19.029Z,0
2022-10-23T02:22:18.995Z,0
2022-10-23T02:23:19.000Z,0
2022-10-23T02:24:19.004Z,0
2022-10-23T02:25:19.031Z,0
2022-10-23T02:26:19.019Z,0
2022-10-23T02:27:19.006Z,0
2022-10-23T02:28:18.997Z,0
2022-10-23T02:29:19.003Z,0
2022-10-23T02:30:19.006Z,0
2022-10-23T02:31:19.030Z,0
2022-10-23T02:32:19.012Z,0
2022-10-23T02:33:19.006Z,0
2022-10-23T02:34:19.001Z,0
2022-10-23T02:35:18.997Z,0
2022-10-23T02:36:19.024Z,0
2022-10-23T02:37:19.102Z,0
2022-10-23T02:38:19.005Z,0
2022-10-23T02:39:19.014Z,0
2022-10-23T02:40:19.004Z,0
2022-10-23T02:41:19.017Z,0
2022-10-23T02:42:18.995Z,0
2022-10-23T02:43:18.999Z,0
2022-10-23T02:44:19.009Z,0
2022-10-23T02:45:19.014Z,0
2022-10-23T02:46:19.003Z,0
2022-10-23T02:47:19.016Z,0
2022-10-23T02:48:19.004Z,0
2022-10-23T02:49:19.011Z,0
2022-10-23T02:50:19.014Z,0
2022-10-23T02:51:19.036Z,0
2022-10-23T02:52:19.014Z,0
2022-10-23T02:53:18.989Z,0
2022-10-23T02:54:18.998Z,0
2022-10-23T02:55:19.010Z,0
2022-10-23T02:56:19.004Z,0
2022-10-23T02:57:18.994Z,0
2022-10-23T02:58:18.995Z,0
2022-10-23T02:59:19.008Z,0
2022-10-23T03:00:19.025Z,0
2022-10-23T03:01:19.090Z,0
2022-10-23T03:02:19.103Z,0
2022-10-23T03:03:19.021Z,0
2022-10-23T03:04:19.001Z,0
2022-10-23T03:05:19.029Z,0
2022-10-23T03:06:18.996Z,0
2022-10-23T03:07:18.994Z,0
2022-10-23T03:08:18.998Z,0
2022-10-23T03:09:19.011Z,0
2022-10-23T03:10:19.042Z,0
2022-10-23T03:11:19.011Z,0
2022-10-23T03:12:18.996Z,0
2022-10-23T03:13:19.012Z,0
2022-10-23T03:14:19.029Z,0
2022-10-23T03:15:19.256Z,0
2022-10-23T03:16:18.999Z,0
2022-10-23T03:17:19.005Z,0
2022-10-23T03:18:19.017Z,0
2022-10-23T03:19:19.002Z,0
2022-10-23T03:20:19.037Z,0
2022-10-23T03:21:19.004Z,0
2022-10-23T03:22:19.003Z,0
2022-10-23T03:23:19.001Z,0
2022-10-23T03:24:18.993Z,0
2022-10-23T03:25:19.042Z,0
2022-10-23T03:26:19.013Z,0
2022-10-23T03:27:19.048Z,0
2022-10-23T03:28:19.000Z,0
2022-10-23T03:29:19.016Z,0
2022-10-23T03:30:19.061Z,0
2022-10-23T03:31:19.013Z,0
2022-10-23T03:32:19.014Z,0
2022-10-23T03:33:18.998Z,0
2022-10-23T03:34:19.004Z,0
2022-10-23T03:35:19.036Z,0
2022-10-23T03:36:19.016Z,0
2022-10-23T03:37:19.053Z,0
2022-10-23T03:38:19.020Z,0
2022-10-23T03:39:19.023Z,0
2022-10-23T03:40:18.992Z,0
2022-10-23T03:41:19.006Z,0
2022-10-23T03:42:19.018Z,0
2022-10-23T03:43:19.004Z,0
2022-10-23T03:44:19.000Z,0
2022-10-23T03:45:19.012Z,0
2022-10-23T03:46:19.003Z,0
2022-10-23T03:47:19.011Z,0
2022-10-23T03:48:19.014Z,0
2022-10-23T03:49:19.010Z,0
2022-10-23T03:50:19.010Z,0
2022-10-23T03:51:19.023Z,0
2022-10-23T03:52:19.086Z,0
2022-10-23T03:53:18.999Z,0
2022-10-23T03:54:19.007Z,0
2022-10-23T03:55:18.999Z,0
2022-10-23T03:56:19.006Z,0
2022-10-23T03:57:19.005Z,0
2022-10-23T03:58:19.004Z,0
2022-10-23T03:59:19.020Z,0
2022-10-23T04:00:19.005Z,0
2022-10-23T04:01:19.055Z,0
2022-10-23T04:02:19.110Z,0
2022-10-23T04:03:19.021Z,0
2022-10-23T04:04:18.996Z,0
2022-10-23T04:05:19.000Z,0
2022-10-23T04:06:19.008Z,0
2022-10-23T04:07:18.996Z,0
2022-10-23T04:08:20.002Z,0
2022-10-23T04:09:18.993Z,0
2022-10-23T04:10:19.012Z,0
2022-10-23T04:11:19.006Z,0
2022-10-23T04:12:19.010Z,0
2022-10-23T04:13:19.007Z,0
2022-10-23T04:14:19.005Z,0
2022-10-23T04:15:19.015Z,0
2022-10-23T04:16:19.000Z,0
2022-10-23T04:17:19.087Z,0
2022-10-23T04:18:19.005Z,0
2022-10-23T04:19:18.992Z,0
2022-10-23T04:20:19.010Z,0
2022-10-23T04:21:19.009Z,0
2022-10-23T04:22:19.024Z,0
2022-10-23T04:23:19.017Z,0
2022-10-23T04:24:18.992Z,0
2022-10-23T04:25:19.021Z,0
2022-10-23T04:26:19.016Z,0
2022-10-23T04:27:19.016Z,0
2022-10-23T04:28:19.000Z,0
2022-10-23T04:29:18.994Z,0
2022-10-23T04:30:19.038Z,0
2022-10-23T04:31:19.008Z,0
2022-10-23T04:32:18.998Z,0
2022-10-23T04:33:19.000Z,0
2022-10-23T04:34:19.010Z,0
2022-10-23T04:35:19.037Z,0
2022-10-23T04:36:19.004Z,0
2022-10-23T04:37:19.002Z,0
2022-10-23T04:38:19.006Z,0
2022-10-23T04:39:18.988Z,0
2022-10-23T04:40:19.033Z,0
2022-10-23T04:41:18.991Z,0
2022-10-23T04:42:19.074Z,0
2022-10-23T04:43:19.003Z,0
2022-10-23T04:44:19.001Z,0
2022-10-23T04:45:19.032Z,0
2022-10-23T04:46:18.991Z,0
2022-10-23T04:47:19.007Z,0
2022-10-23T04:48:18.989Z,0
2022-10-23T04:49:18.992Z,0
2022-10-23T04:50:19.028Z,0
2022-10-23T04:51:19.021Z,0
2022-10-23T04:52:19.265Z,0
2022-10-23T04:53:19.011Z,0
2022-10-23T04:54:18.993Z,0
2022-10-23T04:55:19.017Z,0
2022-10-23T04:56:19.001Z,0
2022-10-23T04:57:19.029Z,0
2022-10-23T04:58:19.004Z,0
2022-10-23T04:59:19.006Z,0
2022-10-23T05:00:18.999Z,0
2022-10-23T05:01:19.088Z,0
2022-10-23T05:02:19.014Z,0
2022-10-23T05:03:19.000Z,0
2022-10-23T05:04:19.050Z,0
2022-10-23T05:05:18.998Z,0
2022-10-23T05:06:18.997Z,0
2022-10-23T05:07:19.044Z,0
2022-10-23T05:08:19.020Z,0
2022-10-23T05:09:18.995Z,0
2022-10-23T05:10:19.003Z,0
2022-10-23T05:11:19.010Z,0
2022-10-23T05:12:19.016Z,0
2022-10-23T05:13:19.006Z,0
2022-10-23T05:14:20.566Z,0
2022-10-23T05:15:18.996Z,0
2022-10-23T05:16:19.131Z,0
2022-10-23T05:17:18.996Z,0
2022-10-23T05:18:19.008Z,0
2022-10-23T05:19:20.657Z,0
2022-10-23T05:20:18.999Z,0
2022-10-23T05:21:18.997Z,0
2022-10-23T05:22:18.998Z,0
2022-10-23T05:23:18.988Z,0
2022-10-23T05:24:19.005Z,0
2022-10-23T05:25:18.996Z,0
2022-10-23T05:26:18.992Z,0
2022-10-23T05:27:20.863Z,0.23
2022-10-23T05:28:19.810Z,0.23
2022-10-23T05:29:19.354Z,0.23
2022-10-23T05:30:19.191Z,0.23
2022-10-23T05:31:18.998Z,0.46
2022-10-23T05:32:19.233Z,0.46
2022-10-23T05:33:18.994Z,0.69
2022-10-23T05:34:19.039Z,0.69
2022-10-23T05:35:19.011Z,0.92
2022-10-23T05:36:18.995Z,1.15
2022-10-23T05:37:18.996Z,1.15
2022-10-23T05:38:19.002Z,1.61
2022-10-23T05:39:19.029Z,1.84
2022-10-23T05:40:19.006Z,2.07
2022-10-23T05:41:18.997Z,2.53
2022-10-23T05:42:19.001Z,3.22
2022-10-23T05:43:19.004Z,3.91
2022-10-23T05:44:19.000Z,4.6
2022-10-23T05:45:19.032Z,5.75
2022-10-23T05:46:18.993Z,6.9
2022-10-23T05:47:19.005Z,8.51
2022-10-23T05:48:29.916Z,37.5
2022-10-23T05:49:19.006Z,11.67
2022-10-23T05:50:19.043Z,14.17
2022-10-23T05:51:19.128Z,17.5
2022-10-23T05:52:19.003Z,20.83
2022-10-23T05:53:18.997Z,25
2022-10-23T05:54:18.996Z,30.83
2022-10-23T05:55:19.025Z,37.5
2022-10-23T05:56:18.990Z,43.33
2022-10-23T05:57:19.036Z,48.33
2022-10-23T05:58:19.001Z,53.33
2022-10-23T05:59:20.394Z,59.17
2022-10-23T06:00:19.030Z,65.83
2022-10-23T06:01:19.037Z,73.33
2022-10-23T06:02:19.034Z,81.67
2022-10-23T06:03:19.010Z,91.67
2022-10-23T06:04:19.004Z,100.83
2022-10-23T06:05:19.051Z,109.17
2022-10-23T06:06:19.005Z,119.17
2022-10-23T06:07:19.022Z,130.83
2022-10-23T06:08:19.005Z,143.33
2022-10-23T06:09:18.995Z,155.83
2022-10-23T06:10:18.992Z,168.33
2022-10-23T06:11:19.022Z,182.5
2022-10-23T06:12:19.001Z,197.5
2022-10-23T06:13:19.001Z,213.33
2022-10-23T06:14:19.008Z,229.17
2022-10-23T06:15:19.015Z,247.5
2022-10-23T06:16:19.037Z,267.5
2022-10-23T06:17:19.033Z,291.67
2022-10-23T06:18:19.010Z,320
2022-10-23T06:19:18.995Z,350.83
2022-10-23T06:20:18.994Z,384.17
2022-10-23T06:21:18.995Z,420
2022-10-23T06:23:19.004Z,493.33
2022-10-23T06:24:18.998Z,535.83
2022-10-23T06:25:19.033Z,586.67
2022-10-23T06:26:19.027Z,641.67
2022-10-23T06:27:19.085Z,699.17
2022-10-23T06:28:20.519Z,752.5
2022-10-23T06:29:19.005Z,800
2022-10-23T06:30:19.013Z,839.17
2022-10-23T06:31:19.022Z,867.5
2022-10-23T06:32:18.998Z,887.5
2022-10-23T06:33:19.017Z,901.67
2022-10-23T06:34:19.030Z,912.5
2022-10-23T06:35:19.005Z,925
2022-10-23T06:36:19.003Z,940.83
2022-10-23T06:37:19.020Z,960
2022-10-23T06:38:19.006Z,985.83
2022-10-23T06:39:19.015Z,1015
2022-10-23T06:40:18.992Z,1049.17
2022-10-23T06:41:19.004Z,1085
2022-10-23T06:42:18.999Z,1122.5
2022-10-23T06:43:19.000Z,1164.17
2022-10-23T06:44:18.988Z,1209.17
2022-10-23T06:45:18.998Z,1261.67
2022-10-23T06:46:19.005Z,1318.33
2022-10-23T06:47:19.011Z,1380
2022-10-23T06:48:19.015Z,1445.83
2022-10-23T06:49:19.004Z,1515.83
2022-10-23T06:50:19.004Z,1579.17
2022-10-23T06:51:19.017Z,1647.5
2022-10-23T06:52:34.855Z,1714.17
2022-10-23T06:53:18.994Z,1784.17
2022-10-23T06:54:19.002Z,1855
2022-10-23T06:55:18.999Z,1925.83
2022-10-23T06:56:18.993Z,1990
2022-10-23T06:57:19.000Z,2068.33
2022-10-23T06:58:19.044Z,2100
2022-10-23T06:59:19.001Z,2130
2022-10-23T07:00:19.000Z,2142.5
2022-10-23T07:01:19.165Z,2150.83
2022-10-23T07:02:18.998Z,2147.5
2022-10-23T07:03:19.004Z,2158.33
2022-10-23T07:04:19.013Z,2171.67
2022-10-23T07:05:19.014Z,2191.67
2022-10-23T07:06:19.015Z,2230
2022-10-23T07:07:19.034Z,2288.33
2022-10-23T07:08:19.036Z,2353.33
2022-10-23T07:09:19.027Z,2413.33
2022-10-23T07:10:19.011Z,2480
2022-10-23T07:11:19.006Z,2531.67
2022-10-23T07:12:19.027Z,2591.67
2022-10-23T07:13:19.025Z,2657.5
2022-10-23T07:14:19.002Z,2738.33
2022-10-23T07:15:19.210Z,2821.67
2022-10-23T07:16:18.992Z,2892.5
2022-10-23T07:17:19.000Z,2957.5
2022-10-23T07:18:19.000Z,3040.83
2022-10-23T07:19:19.003Z,3125.83
2022-10-23T07:20:19.004Z,3189.17
2022-10-23T07:21:19.005Z,3241.67
2022-10-23T07:22:19.003Z,3287.5
2022-10-23T07:23:19.009Z,3349.17
2022-10-23T07:24:19.004Z,3430.83
2022-10-23T07:25:19.024Z,3517.5
2022-10-23T07:26:19.007Z,3608.33
2022-10-23T07:27:19.112Z,3718.33
2022-10-23T07:28:19.004Z,3770.83
2022-10-23T07:29:19.023Z,3946.67
2022-10-23T07:30:19.021Z,4040
2022-10-23T07:31:19.014Z,4073.33
2022-10-23T07:32:19.001Z,4121.67
2022-10-23T07:33:18.996Z,4096.67
2022-10-23T07:34:19.002Z,4118.33
2022-10-23T07:35:18.996Z,4142.5
2022-10-23T07:36:19.008Z,4196.67
2022-10-23T07:37:19.014Z,4210.83
2022-10-23T07:38:19.028Z,4265.83
2022-10-23T07:39:19.008Z,4413.33
2022-10-23T07:40:19.016Z,4584.17
2022-10-23T07:41:18.992Z,4709.17
2022-10-23T07:42:19.004Z,4842.5
2022-10-23T07:43:19.093Z,4950
2022-10-23T07:44:19.593Z,5022.5
2022-10-23T07:45:19.000Z,5073.33
2022-10-23T07:46:18.994Z,5123.33
2022-10-23T07:47:19.010Z,5114.17
2022-10-23T07:48:19.002Z,5061.67
2022-10-23T07:49:18.997Z,5000.83
2022-10-23T07:50:19.013Z,4974.17
2022-10-23T07:51:19.017Z,4965
2022-10-23T07:52:18.998Z,4975.83
2022-10-23T07:53:18.999Z,4961.67
2022-10-23T07:54:19.004Z,4942.5
2022-10-23T07:55:19.013Z,4909.17
2022-10-23T07:56:18.995Z,4857.5
2022-10-23T07:57:18.996Z,4793.33
2022-10-23T07:58:19.004Z,4711.67
2022-10-23T07:59:19.006Z,4625
2022-10-23T08:00:19.044Z,4547.5
2022-10-23T08:01:19.115Z,4497.5
2022-10-23T08:02:19.070Z,4474.17
2022-10-23T08:03:19.022Z,4465.83
2022-10-23T08:04:19.132Z,4455
2022-10-23T08:05:18.999Z,4439.17
2022-10-23T08:06:19.008Z,4419.17
2022-10-23T08:07:19.001Z,4390.83
2022-10-23T08:08:19.003Z,4359.17
2022-10-23T08:09:18.997Z,4325.83
2022-10-23T08:10:19.006Z,4289.17
2022-10-23T08:11:19.008Z,4262.5
2022-10-23T08:12:19.004Z,4253.33
2022-10-23T08:13:19.001Z,4263.33
2022-10-23T08:14:19.017Z,4286.67
2022-10-23T08:15:19.012Z,4308.33
2022-10-23T08:16:19.005Z,4325.83
2022-10-23T08:17:19.106Z,4352.5
2022-10-23T08:18:19.000Z,4378.33
2022-10-23T08:19:19.000Z,4414.17
2022-10-23T08:20:19.009Z,4419.17
2022-10-23T08:21:18.998Z,4416.67
2022-10-23T08:22:19.018Z,4429.17
2022-10-23T08:23:18.990Z,4474.17
2022-10-23T08:24:19.007Z,4538.33
2022-10-23T08:25:21.951Z,4611.67
2022-10-23T08:26:19.007Z,4681.67
2022-10-23T08:27:19.010Z,4746.67
2022-10-23T08:28:19.124Z,4839.17
2022-10-23T08:29:19.004Z,4958.33
2022-10-23T08:30:19.001Z,5091.67
2022-10-23T08:31:19.013Z,5219.17
2022-10-23T08:32:19.003Z,5332.5
2022-10-23T08:33:18.997Z,5442.5
2022-10-23T08:34:18.999Z,5587.5
2022-10-23T08:35:19.113Z,5745.83
2022-10-23T08:36:19.327Z,5976.67
2022-10-23T08:37:19.643Z,6285.83
2022-10-23T08:38:19.998Z,6627.5
2022-10-23T08:39:19.482Z,6937.5
2022-10-23T08:40:19.023Z,7290
2022-10-23T08:41:20.156Z,7901.67
2022-10-23T08:42:19.011Z,7518.33
2022-10-23T08:43:19.233Z,7987.5
2022-10-23T08:44:19.001Z,8687.5
2022-10-23T08:45:19.004Z,10734.17
2022-10-23T08:46:19.019Z,11320
2022-10-23T08:47:19.003Z,12195
2022-10-23T08:48:19.031Z,11995.83
2022-10-23T08:49:18.999Z,11846.67
2022-10-23T08:50:19.110Z,11226.67
2022-10-23T08:51:19.011Z,10928.33
2022-10-23T08:52:19.006Z,10959.17
2022-10-23T08:53:19.026Z,11927.5
2022-10-23T08:54:19.012Z,12322.5
2022-10-23T08:55:19.011Z,11265.83
2022-10-23T08:56:18.999Z,11000.83
2022-10-23T08:57:19.005Z,10504.17
2022-10-23T08:58:18.999Z,10970.83
2022-10-23T08:59:19.005Z,11444.17
2022-10-23T09:00:19.029Z,12590
2022-10-23T09:01:19.097Z,12666.67
2022-10-23T09:02:19.023Z,12743.33
2022-10-23T09:03:19.047Z,12340.83
2022-10-23T09:04:19.011Z,12198.33
2022-10-23T09:05:19.298Z,12539.17
2022-10-23T09:06:19.035Z,11180
2022-10-23T09:07:19.011Z,10253.33
2022-10-23T09:08:19.004Z,9895
2022-10-23T09:09:19.011Z,9557.5
2022-10-23T09:10:18.996Z,9377.5
2022-10-23T09:11:19.018Z,9380.83
2022-10-23T09:12:18.994Z,9642.5
2022-10-23T09:13:19.058Z,9879.17
2022-10-23T09:14:19.009Z,10117.5
2022-10-23T09:15:19.016Z,11044.17
2022-10-23T09:16:19.023Z,12802.5
2022-10-23T09:17:19.005Z,11637.5
2022-10-23T09:18:19.005Z,13151.67
2022-10-23T09:19:19.009Z,11168.33
2022-10-23T09:20:19.015Z,14295.83
2022-10-23T09:21:19.036Z,14666.67
2022-10-23T09:22:19.007Z,14207.5
2022-10-23T09:23:18.999Z,14492.5
2022-10-23T09:24:19.012Z,13970.83
2022-10-23T09:25:19.006Z,13194.17
2022-10-23T09:26:19.029Z,12124.17
2022-10-23T09:27:19.021Z,11557.5
2022-10-23T09:28:19.010Z,10895
2022-10-23T09:29:19.019Z,11845
2022-10-23T09:30:19.056Z,12585
2022-10-23T09:31:19.034Z,12529.17
2022-10-23T09:32:19.006Z,13092.5
2022-10-23T09:33:19.004Z,13416.67
2022-10-23T09:34:19.002Z,12123.33
2022-10-23T09:35:19.017Z,11307.5
2022-10-23T09:36:19.019Z,11110.83
2022-10-23T09:37:19.449Z,10835.83
2022-10-23T09:38:19.020Z,10604.17
2022-10-23T09:39:19.013Z,10305.83
2022-10-23T09:40:19.108Z,10075
2022-10-23T09:41:19.006Z,9940.83
2022-10-23T09:42:19.006Z,9781.67
2022-10-23T09:43:18.997Z,9660.83
2022-10-23T09:44:19.004Z,9460
2022-10-23T09:45:18.995Z,9225.83
2022-10-23T09:46:19.002Z,9166.67
2022-10-23T09:47:18.999Z,9297.5
2022-10-23T09:48:19.010Z,9855
2022-10-23T09:49:19.005Z,10188.33
2022-10-23T09:50:18.995Z,10236.67
2022-10-23T09:51:19.002Z,10017.5
2022-10-23T09:52:19.017Z,10444.17
2022-10-23T09:53:19.034Z,10468.33
2022-10-23T09:54:19.018Z,10659.17
2022-10-23T09:55:19.008Z,10557.5
2022-10-23T09:56:21.279Z,10844.17
2022-10-23T09:57:19.004Z,12089.17
2022-10-23T09:58:18.997Z,11823.33
2022-10-23T09:59:19.037Z,11495.83
2022-10-23T10:00:19.001Z,12098.33
2022-10-23T10:01:19.095Z,11574.17
2022-10-23T10:02:19.107Z,13920
2022-10-23T10:03:19.064Z,13880
2022-10-23T10:04:19.010Z,16618.33
2022-10-23T10:05:19.021Z,14566.67
2022-10-23T10:06:19.000Z,15356.67
2022-10-23T10:07:18.997Z,16598.33
2022-10-23T10:08:19.002Z,15874.17
2022-10-23T10:09:19.003Z,18011.67
2022-10-23T10:10:18.997Z,14713.33
2022-10-23T10:11:19.004Z,14274.17
2022-10-23T10:12:19.011Z,12423.33
2022-10-23T10:13:19.012Z,12071.67
2022-10-23T10:14:19.011Z,11849.17
2022-10-23T10:15:19.014Z,11859.17
2022-10-23T10:16:19.014Z,11980
2022-10-23T10:17:19.028Z,12385.83
2022-10-23T10:18:19.101Z,12092.5
2022-10-23T10:19:19.004Z,11701.67
2022-10-23T10:20:19.009Z,11463.33
2022-10-23T10:21:19.009Z,11241.67
2022-10-23T10:22:19.001Z,11203.33
2022-10-23T10:23:19.001Z,11300
2022-10-23T10:24:19.013Z,10989.17
2022-10-23T10:25:19.003Z,10836.67
2022-10-23T10:26:19.111Z,10535.83
2022-10-23T10:27:19.009Z,10254.17
2022-10-23T10:28:19.032Z,10105.83
2022-10-23T10:29:19.014Z,10195
2022-10-23T10:30:19.162Z,10294.17
2022-10-23T10:31:19.000Z,10215
2022-10-23T10:32:18.994Z,10690
2022-10-23T10:33:18.998Z,10795
2022-10-23T10:34:19.021Z,11065
2022-10-23T10:35:19.010Z,11090
2022-10-23T10:36:19.031Z,11225.83
2022-10-23T10:37:18.996Z,11047.5
2022-10-23T10:38:19.002Z,10672.5
2022-10-23T10:39:19.024Z,10453.33
2022-10-23T10:40:19.012Z,10284.17
2022-10-23T10:41:19.022Z,10241.67
2022-10-23T10:42:19.006Z,10027.5
2022-10-23T10:43:18.995Z,10463.33
2022-10-23T10:44:19.014Z,10575
2022-10-23T10:45:18.999Z,10495
2022-10-23T10:46:19.009Z,10299.17
2022-10-23T10:47:20.903Z,9755
2022-10-23T10:48:19.007Z,9400
2022-10-23T10:49:19.017Z,9381.67
2022-10-23T10:50:19.014Z,9429.17
2022-10-23T10:51:18.998Z,9704.17
2022-10-23T10:52:19.012Z,9609.17
2022-10-23T10:53:19.015Z,9819.17
2022-10-23T10:54:19.023Z,10132.5
2022-10-23T10:55:18.995Z,10332.5
2022-10-23T10:56:18.999Z,10497.5
2022-10-23T10:57:19.015Z,10580.83
2022-10-23T10:58:19.001Z,10435.83
2022-10-23T10:59:19.008Z,10246.67
2022-10-23T11:00:19.021Z,10043.33
2022-10-23T11:01:19.115Z,9760
2022-10-23T11:02:19.088Z,9494.17
2022-10-23T11:03:19.004Z,9286.67
2022-10-23T11:04:19.013Z,9155.83
2022-10-23T11:05:19.032Z,9080
2022-10-23T11:06:19.012Z,9104.17
2022-10-23T11:07:18.990Z,9305.83
2022-10-23T11:08:19.001Z,9316.67
2022-10-23T11:09:20.507Z,9368.33
2022-10-23T11:10:19.009Z,9361.67
2022-10-23T11:11:19.007Z,9262.5
2022-10-23T11:12:19.004Z,9120.83
2022-10-23T11:13:19.004Z,8972.5
2022-10-23T11:14:19.007Z,8847.5
2022-10-23T11:15:18.993Z,8755
2022-10-23T11:16:19.015Z,8668.33
2022-10-23T11:17:19.012Z,8593.33
2022-10-23T11:18:19.095Z,8533.33
2022-10-23T11:19:19.002Z,8380
2022-10-23T11:20:18.991Z,8218.33
2022-10-23T11:21:18.992Z,8123.33
2022-10-23T11:22:18.997Z,8121.67
2022-10-23T11:23:19.010Z,8160
2022-10-23T11:24:18.995Z,8210
2022-10-23T11:25:18.993Z,8247.5
2022-10-23T11:26:19.805Z,8169.17
2022-10-23T11:27:19.020Z,7914.17
2022-10-23T11:28:19.020Z,7556.67
2022-10-23T11:29:19.009Z,7253.33
2022-10-23T11:30:19.001Z,7033.33
2022-10-23T11:31:19.000Z,6800.83
2022-10-23T11:32:19.017Z,6519.17
2022-10-23T11:33:18.993Z,6170
2022-10-23T11:34:18.992Z,5820
2022-10-23T11:35:19.005Z,5583.33
2022-10-23T11:36:19.004Z,5379.17
2022-10-23T11:37:19.001Z,5222.5
2022-10-23T11:38:18.991Z,5077.5
2022-10-23T11:39:19.004Z,4960
2022-10-23T11:40:18.998Z,4904.17
2022-10-23T11:41:19.996Z,4875
2022-10-23T11:42:19.014Z,4935.83
2022-10-23T11:43:19.013Z,5048.33
2022-10-23T11:44:18.997Z,5108.33
2022-10-23T11:45:18.993Z,5145.83
2022-10-23T11:46:18.995Z,5128.33
2022-10-23T11:47:19.019Z,5173.33
2022-10-23T11:48:18.987Z,5333.33
2022-10-23T11:49:19.302Z,5658.33
2022-10-23T11:50:19.612Z,6050
2022-10-23T11:51:19.869Z,6355
2022-10-23T11:52:19.412Z,6440
2022-10-23T11:53:19.815Z,6378.33
2022-10-23T11:54:19.198Z,6240
2022-10-23T11:55:19.370Z,6134.17
2022-10-23T11:56:19.775Z,6006.67
2022-10-23T11:57:19.124Z,5896.67
2022-10-23T11:58:19.285Z,5815.83
2022-10-23T11:59:19.004Z,5786.67
2022-10-23T12:00:19.000Z,5806.67
2022-10-23T12:01:19.340Z,5814.17
2022-10-23T12:02:19.089Z,5808.33
2022-10-23T12:03:19.028Z,5702.5
2022-10-23T12:04:19.023Z,5546.67
2022-10-23T12:05:19.010Z,5300
2022-10-23T12:06:19.002Z,5109.17
2022-10-23T12:07:19.056Z,4954.17
2022-10-23T12:08:19.263Z,4872.5
2022-10-23T12:09:18.995Z,4913.33
2022-10-23T12:10:19.000Z,4980.83
2022-10-23T12:11:19.000Z,5000
2022-10-23T12:12:19.019Z,5067.5
2022-10-23T12:13:18.998Z,5130
2022-10-23T12:14:19.009Z,5187.5
2022-10-23T12:15:19.029Z,5380.83
2022-10-23T12:16:19.008Z,5780.83
2022-10-23T12:17:19.031Z,6210
2022-10-23T12:18:19.001Z,6497.5
2022-10-23T12:19:19.023Z,6616.67
2022-10-23T12:20:19.102Z,6559.17
2022-10-23T12:21:19.014Z,6425.83
2022-10-23T12:22:19.027Z,6336.67
2022-10-23T12:23:19.016Z,6308.33
2022-10-23T12:24:18.999Z,6222.5
2022-10-23T12:25:19.006Z,5971.67
2022-10-23T12:26:19.000Z,5647.5
2022-10-23T12:27:19.008Z,5429.17
2022-10-23T12:28:19.004Z,5399.17
2022-10-23T12:29:19.011Z,5550.83
2022-10-23T12:30:18.996Z,5924.17
2022-10-23T12:31:19.004Z,6537.5
2022-10-23T12:32:19.021Z,7019.17
2022-10-23T12:33:19.261Z,7016.67
2022-10-23T12:34:18.997Z,6620
2022-10-23T12:35:18.992Z,6005
2022-10-23T12:36:19.030Z,5303.33
2022-10-23T12:37:18.999Z,4589.17
2022-10-23T12:38:18.999Z,3916.67
2022-10-23T12:39:19.003Z,3346.67
2022-10-23T12:40:19.015Z,2891.67
2022-10-23T12:41:19.041Z,2552.5
2022-10-23T12:42:19.017Z,2350
2022-10-23T12:43:19.011Z,2298.33
2022-10-23T12:44:19.015Z,2360.83
2022-10-23T12:45:19.000Z,2438.33
2022-10-23T12:46:19.021Z,2557.5
2022-10-23T12:47:19.007Z,2627.5
2022-10-23T12:48:19.015Z,2572.5
2022-10-23T12:49:19.006Z,2504.17
2022-10-23T12:50:19.020Z,2429.17
2022-10-23T12:51:19.011Z,2400
2022-10-23T12:52:18.993Z,2506.67
2022-10-23T12:53:19.001Z,2771.67
2022-10-23T12:54:19.003Z,3220.83
2022-10-23T12:55:19.075Z,3937.5
2022-10-23T12:56:19.009Z,4525.83
2022-10-23T12:57:19.048Z,4587.5
2022-10-23T12:58:19.007Z,4268.33
2022-10-23T12:59:19.004Z,3822.5
2022-10-23T13:00:19.024Z,3517.5
2022-10-23T13:01:19.125Z,3416.67
2022-10-23T13:02:19.066Z,3652.5
2022-10-23T13:03:18.993Z,4390.83
2022-10-23T13:05:19.031Z,7774.17
2022-10-23T13:06:18.997Z,9449.17
2022-10-23T13:07:19.016Z,9855
2022-10-23T13:08:19.004Z,9790.83
2022-10-23T13:09:19.221Z,9864.17
2022-10-23T13:10:19.022Z,9825.83
2022-10-23T13:11:19.002Z,9531.67
2022-10-23T13:12:18.994Z,9422.5
2022-10-23T13:13:19.017Z,9318.33
2022-10-23T13:14:19.012Z,9028.33
2022-10-23T13:15:19.016Z,8766.67
2022-10-23T13:16:19.012Z,8650